createdAt,value
2019-02-03T00:01:48.063Z,99.90
2019-02-03T00:04:17.938Z,99.90
2019-02-03T00:06:47.365Z,99.90
2019-02-03T00:09:19.549Z,99.90
2019-02-03T00:12:07.982Z,99.90
2019-02-03T00:14:37.312Z,99.90
2019-02-03T00:17:06.916Z,99.90
2019-02-03T00:19:36.253Z,99.90
2019-02-03T00:22:06.948Z,99.90
2019-02-03T00:24:36.198Z,99.90
2019-02-03T00:27:05.521Z,99.90
2019-02-03T00:29:35.530Z,99.90
2019-02-03T00:32:05.145Z,99.90
2019-02-03T00:34:34.476Z,99.90
2019-02-03T00:37:14.809Z,99.90
2019-02-03T00:39:35.965Z,99.90
2019-02-03T00:42:05.283Z,99.90
2019-02-03T00:44:34.938Z,99.90
2019-02-03T00:47:04.247Z,99.90
2019-02-03T00:49:33.450Z,99.90
2019-02-03T00:52:03.030Z,99.90
2019-02-03T00:54:33.125Z,99.90
2019-02-03T00:57:02.754Z,99.90
2019-02-03T00:59:32.021Z,99.90
2019-02-03T01:02:01.322Z,99.90
2019-02-03T01:04:30.557Z,99.90
2019-02-03T01:07:00.165Z,99.90
2019-02-03T01:09:29.857Z,99.90
2019-02-03T01:11:59.078Z,99.90
2019-02-03T01:14:28.816Z,99.90
2019-02-03T01:16:58.480Z,99.90
2019-02-03T01:19:28.222Z,99.90
2019-02-03T01:21:58.176Z,99.90
2019-02-03T01:24:27.826Z,99.90
2019-02-03T01:26:57.121Z,99.90
2019-02-03T01:29:26.814Z,99.90
2019-02-03T01:31:56.033Z,99.90
2019-02-03T01:34:25.634Z,99.90
2019-02-03T01:36:55.475Z,99.90
2019-02-03T01:39:25.717Z,99.90
2019-02-03T01:41:55.012Z,99.90
2019-02-03T01:44:24.341Z,99.90
2019-02-03T01:46:53.957Z,99.90
2019-02-03T01:49:23.622Z,99.90
2019-02-03T01:51:52.848Z,99.90
2019-02-03T01:54:22.578Z,99.90
2019-02-03T01:56:51.826Z,99.90
2019-02-03T01:59:21.400Z,99.90
2019-02-03T02:01:51.176Z,99.90
2019-02-03T02:04:20.746Z,99.90
2019-02-03T02:06:52.895Z,99.90
2019-02-03T02:09:21.687Z,99.90
2019-02-03T02:11:50.943Z,99.90
2019-02-03T02:14:20.835Z,99.90
2019-02-03T02:16:50.116Z,99.90
2019-02-03T02:19:19.719Z,99.90
2019-02-03T02:21:48.950Z,99.90
2019-02-03T02:24:18.228Z,99.90
2019-02-03T02:26:48.737Z,99.90
2019-02-03T02:29:18.364Z,99.90
2019-02-03T02:31:47.658Z,99.90
2019-02-03T02:34:17.560Z,99.90
2019-02-03T02:36:47.234Z,99.90
2019-02-03T02:39:16.839Z,99.90
2019-02-03T02:41:46.405Z,99.90
2019-02-03T02:44:15.920Z,99.90
2019-02-03T02:46:45.289Z,99.90
2019-02-03T02:49:15.271Z,99.90
2019-02-03T02:51:44.973Z,99.90
2019-02-03T02:54:14.210Z,99.90
2019-02-03T02:56:43.935Z,99.90
2019-02-03T02:59:13.324Z,99.90
2019-02-03T03:01:42.623Z,99.90
2019-02-03T03:04:12.321Z,99.90
2019-02-03T03:06:42.465Z,99.90
2019-02-03T03:09:12.053Z,99.90
2019-02-03T03:11:41.452Z,99.90
2019-02-03T03:14:10.704Z,99.90
2019-02-03T03:16:40.346Z,99.90
2019-02-03T03:19:09.876Z,99.90
2019-02-03T03:21:39.667Z,99.90
2019-02-03T03:24:09.246Z,99.90
2019-02-03T03:26:38.879Z,99.90
2019-02-03T03:29:09.042Z,99.90
2019-02-03T03:31:38.824Z,99.90
2019-02-03T03:34:08.056Z,99.90
2019-02-03T03:36:37.585Z,99.90
2019-02-03T03:39:08.758Z,99.90
2019-02-03T03:41:38.225Z,99.90
2019-02-03T03:44:07.503Z,99.90
2019-02-03T03:46:37.243Z,99.90
2019-02-03T03:49:06.990Z,99.90
2019-02-03T03:51:36.254Z,99.90
2019-02-03T03:54:05.900Z,99.90
2019-02-03T03:56:35.288Z,99.90
2019-02-03T03:59:04.868Z,99.90
2019-02-03T04:01:34.192Z,99.90
2019-02-03T04:04:03.950Z,99.90
2019-02-03T04:06:33.289Z,99.90
2019-02-03T04:09:02.862Z,99.90
2019-02-03T04:11:33.373Z,99.90
2019-02-03T04:14:02.985Z,99.90
2019-02-03T04:16:32.902Z,99.90
2019-02-03T04:19:02.278Z,99.90
2019-02-03T04:21:31.685Z,99.90
2019-02-03T04:24:01.300Z,99.90
2019-02-03T04:26:30.949Z,99.90
2019-02-03T04:29:00.945Z,99.90
2019-02-03T04:31:30.316Z,99.90
2019-02-03T04:33:59.510Z,99.90
2019-02-03T04:36:29.137Z,99.90
2019-02-03T04:38:58.753Z,99.90
2019-02-03T04:41:28.613Z,99.90
2019-02-03T04:43:58.190Z,99.90
2019-02-03T04:46:27.477Z,99.90
2019-02-03T04:48:57.145Z,99.90
2019-02-03T04:51:26.377Z,99.90
2019-02-03T04:53:55.964Z,99.90
2019-02-03T04:56:26.050Z,99.90
2019-02-03T04:58:55.450Z,99.90
2019-02-03T05:01:25.081Z,99.90
2019-02-03T05:03:54.614Z,99.90
2019-02-03T05:06:24.779Z,99.90
2019-02-03T05:08:54.010Z,99.90
2019-02-03T05:11:23.580Z,99.90
2019-02-03T05:13:52.968Z,99.90
2019-02-03T05:16:22.892Z,99.90
2019-02-03T05:18:52.253Z,99.90
2019-02-03T05:21:21.978Z,99.90
2019-02-03T05:23:51.839Z,99.90
2019-02-03T05:26:21.347Z,99.90
2019-02-03T05:28:51.387Z,99.90
2019-02-03T05:31:22.520Z,99.90
2019-02-03T05:33:51.876Z,99.90
2019-02-03T05:36:21.293Z,99.90
2019-02-03T05:38:50.563Z,99.90
2019-02-03T05:41:20.450Z,99.90
2019-02-03T05:43:49.864Z,99.90
2019-02-03T05:46:19.472Z,99.90
2019-02-03T05:48:49.158Z,99.90
2019-02-03T05:51:18.985Z,99.90
2019-02-03T05:53:48.906Z,99.90
2019-02-03T05:56:18.324Z,99.90
2019-02-03T05:58:47.581Z,99.90
2019-02-03T06:01:17.296Z,99.90
2019-02-03T06:03:46.585Z,99.90
2019-02-03T06:06:15.823Z,99.90
2019-02-03T06:08:45.200Z,99.90
2019-02-03T06:11:14.830Z,99.90
2019-02-03T06:13:44.132Z,99.90
2019-02-03T06:16:13.703Z,99.90
2019-02-03T06:18:43.238Z,99.90
2019-02-03T06:21:12.627Z,99.90
2019-02-03T06:23:41.871Z,99.90
2019-02-03T06:26:12.312Z,99.90
2019-02-03T06:28:41.926Z,99.90
2019-02-03T06:31:14.475Z,99.90
2019-02-03T06:33:45.005Z,99.90
2019-02-03T06:36:15.264Z,99.90
2019-02-03T06:38:45.146Z,99.90
2019-02-03T06:41:14.681Z,99.90
2019-02-03T06:43:44.141Z,99.90
2019-02-03T06:46:45.172Z,99.90
2019-02-03T06:49:28.419Z,99.90
2019-02-03T06:51:58.010Z,99.90
2019-02-03T06:54:27.283Z,99.90
2019-02-03T06:56:57.717Z,99.90
2019-02-03T06:59:26.983Z,99.90
2019-02-03T07:01:57.954Z,99.90
2019-02-03T07:04:27.346Z,99.90
2019-02-03T07:06:57.357Z,99.90
2019-02-03T07:09:26.668Z,99.90
2019-02-03T07:11:57.082Z,99.90
2019-02-03T07:14:26.898Z,99.90
2019-02-03T07:16:57.384Z,99.90
2019-02-03T07:19:27.275Z,99.90
2019-02-03T07:21:56.586Z,99.90
2019-02-03T07:24:26.374Z,99.90
2019-02-03T07:26:55.567Z,99.90
2019-02-03T07:29:25.447Z,99.90
2019-02-03T07:31:55.838Z,99.90
2019-02-03T07:34:25.696Z,99.90
2019-02-03T07:36:55.090Z,99.90
2019-02-03T07:39:24.781Z,99.90
2019-02-03T07:41:55.195Z,99.90
2019-02-03T07:44:24.916Z,99.90
2019-02-03T07:46:54.489Z,99.90
2019-02-03T07:49:24.398Z,99.90
2019-02-03T07:51:53.633Z,99.90
2019-02-03T07:54:22.882Z,99.90
2019-02-03T07:56:53.343Z,99.90
2019-02-03T07:59:23.086Z,99.90
2019-02-03T08:01:52.561Z,99.90
2019-02-03T08:04:22.351Z,99.90
2019-02-03T08:06:51.958Z,99.90
2019-02-03T08:09:22.090Z,99.90
2019-02-03T08:11:51.444Z,99.90
2019-02-03T08:14:21.070Z,99.90
2019-02-03T08:16:51.087Z,99.90
2019-02-03T08:19:20.781Z,99.90
2019-02-03T08:21:50.706Z,99.90
2019-02-03T08:24:20.290Z,99.90
2019-02-03T08:26:50.371Z,99.90
2019-02-03T08:29:19.621Z,99.90
2019-02-03T08:31:48.815Z,99.90
2019-02-03T08:34:18.245Z,99.90
2019-02-03T08:36:48.405Z,99.90
2019-02-03T08:39:18.148Z,99.90
2019-02-03T08:41:47.711Z,99.90
2019-02-03T08:44:16.986Z,99.90
2019-02-03T08:46:46.683Z,99.90
2019-02-03T08:49:16.142Z,99.90
2019-02-03T08:51:46.076Z,99.90
2019-02-03T08:54:15.686Z,99.90
2019-02-03T08:56:45.259Z,99.90
2019-02-03T08:59:14.930Z,99.90
2019-02-03T09:01:44.478Z,99.90
2019-02-03T09:04:13.735Z,99.90
2019-02-03T09:06:42.975Z,99.90
2019-02-03T09:09:12.990Z,99.90
2019-02-03T09:11:42.248Z,99.90
2019-02-03T09:14:11.882Z,99.90
2019-02-03T09:16:41.502Z,99.90
2019-02-03T09:19:11.314Z,99.90
2019-02-03T09:21:40.625Z,99.90
2019-02-03T09:24:09.846Z,99.90
2019-02-03T09:26:39.186Z,99.90
2019-02-03T09:29:08.923Z,99.90
2019-02-03T09:31:38.157Z,99.90
2019-02-03T09:34:07.504Z,99.90
2019-02-03T09:36:37.421Z,99.90
2019-02-03T09:39:11.995Z,99.90
2019-02-03T09:41:41.552Z,99.90
2019-02-03T09:44:11.354Z,99.90
2019-02-03T09:46:41.053Z,99.90
2019-02-03T09:49:10.610Z,99.90
2019-02-03T09:51:40.637Z,99.90
2019-02-03T09:54:10.216Z,99.90
2019-02-03T09:56:40.100Z,99.90
2019-02-03T09:59:10.071Z,99.90
2019-02-03T10:01:39.704Z,99.90
2019-02-03T10:04:09.096Z,99.90
2019-02-03T10:06:38.795Z,99.90
2019-02-03T10:09:08.789Z,99.90
2019-02-03T10:11:38.416Z,99.90
2019-02-03T10:14:10.728Z,99.90
2019-02-03T10:16:40.390Z,99.90
2019-02-03T10:19:09.714Z,99.90
2019-02-03T10:21:39.217Z,99.90
2019-02-03T10:24:09.605Z,99.90
2019-02-03T10:26:39.081Z,99.90
2019-02-03T10:29:08.656Z,99.90
2019-02-03T10:31:37.929Z,99.90
2019-02-03T10:34:07.602Z,99.90
2019-02-03T10:36:37.126Z,99.90
2019-02-03T10:39:09.639Z,99.90
2019-02-03T10:41:39.889Z,99.90
2019-02-03T10:44:09.660Z,99.90
2019-02-03T10:46:38.896Z,99.90
2019-02-03T10:49:08.667Z,99.90
2019-02-03T10:51:37.845Z,99.90
2019-02-03T10:54:07.885Z,99.90
2019-02-03T10:56:37.114Z,99.90
2019-02-03T10:59:06.369Z,99.90
2019-02-03T11:01:35.698Z,99.60
2019-02-03T11:04:05.993Z,99.70
2019-02-03T11:06:35.224Z,97.70
2019-02-03T11:09:08.837Z,97.60
2019-02-03T11:11:38.717Z,93.70
2019-02-03T11:14:07.925Z,91.80
2019-02-03T11:16:37.543Z,91.00
2019-02-03T11:19:06.961Z,92.70
2019-02-03T11:21:36.924Z,92.30
2019-02-03T11:24:06.431Z,89.20
2019-02-03T11:26:35.852Z,84.60
2019-02-03T11:29:05.119Z,82.30
2019-02-03T11:31:34.703Z,79.40
2019-02-03T11:34:04.473Z,76.60
2019-02-03T11:36:34.232Z,76.60
2019-02-03T11:39:05.007Z,76.00
2019-02-03T11:41:34.918Z,75.00
2019-02-03T11:44:04.496Z,76.00
2019-02-03T11:46:34.040Z,72.50
2019-02-03T11:49:03.251Z,70.80
2019-02-03T11:51:32.932Z,69.70
2019-02-03T11:54:02.539Z,65.60
2019-02-03T11:56:31.785Z,60.00
2019-02-03T11:59:01.507Z,59.60
2019-02-03T12:01:31.273Z,58.70
2019-02-03T12:04:01.279Z,57.40
2019-02-03T12:06:30.768Z,57.10
2019-02-03T12:09:00.344Z,59.30
2019-02-03T12:11:29.714Z,63.40
2019-02-03T12:13:58.902Z,65.90
2019-02-03T12:16:28.467Z,67.90
2019-02-03T12:18:58.252Z,69.60
2019-02-03T12:21:30.096Z,70.40
2019-02-03T12:23:58.655Z,72.70
2019-02-03T12:26:28.288Z,75.20
2019-02-03T12:28:57.793Z,76.90
2019-02-03T12:31:27.006Z,80.20
2019-02-03T12:33:57.123Z,81.40
2019-02-03T12:36:26.851Z,81.60
2019-02-03T12:38:56.854Z,82.90
2019-02-03T12:41:26.100Z,83.60
2019-02-03T12:43:55.766Z,85.00
2019-02-03T12:46:25.374Z,85.70
2019-02-03T12:48:54.551Z,86.60
2019-02-03T12:51:23.798Z,86.90
2019-02-03T12:53:53.027Z,88.60
2019-02-03T12:56:22.862Z,88.20
2019-02-03T12:58:52.478Z,88.10
2019-02-03T13:01:21.718Z,88.40
2019-02-03T13:03:51.070Z,91.00
2019-02-03T13:06:20.983Z,91.00
2019-02-03T13:08:50.525Z,91.60
2019-02-03T13:11:20.276Z,91.40
2019-02-03T13:13:49.762Z,91.80
2019-02-03T13:16:20.563Z,92.00
2019-02-03T13:18:50.597Z,91.50
2019-02-03T13:21:20.474Z,90.40
2019-02-03T13:23:50.077Z,90.30
2019-02-03T13:26:22.548Z,89.80
2019-02-03T13:28:51.227Z,87.30
2019-02-03T13:31:20.806Z,83.80
2019-02-03T13:33:50.502Z,81.30
2019-02-03T13:36:20.123Z,81.60
2019-02-03T13:38:49.673Z,80.60
2019-02-03T13:41:19.022Z,79.30
2019-02-03T13:43:48.578Z,79.70
2019-02-03T13:46:17.845Z,75.50
2019-02-03T13:48:47.101Z,70.80
2019-02-03T13:51:16.702Z,64.10
2019-02-03T13:53:46.546Z,59.20
2019-02-03T13:56:16.118Z,56.20
2019-02-03T13:58:46.093Z,53.90
2019-02-03T14:01:15.289Z,51.80
2019-02-03T14:03:44.887Z,52.00
2019-02-03T14:06:14.160Z,52.50
2019-02-03T14:08:43.757Z,52.00
2019-02-03T14:11:13.637Z,53.40
2019-02-03T14:13:43.512Z,55.10
2019-02-03T14:16:12.701Z,55.70
2019-02-03T14:18:42.038Z,54.70
2019-02-03T14:21:11.411Z,55.90
2019-02-03T14:23:41.949Z,57.60
2019-02-03T14:26:11.549Z,58.30
2019-02-03T14:28:41.098Z,58.80
2019-02-03T14:31:10.559Z,58.20
2019-02-03T14:33:39.907Z,58.70
2019-02-03T14:36:09.276Z,59.00
2019-02-03T14:38:38.542Z,60.20
2019-02-03T14:41:07.811Z,60.00
2019-02-03T14:43:37.491Z,59.60
2019-02-03T14:46:07.009Z,59.40
2019-02-03T14:48:36.526Z,59.20
2019-02-03T14:51:06.197Z,60.30
2019-02-03T14:53:35.398Z,62.20
2019-02-03T14:56:04.669Z,63.70
2019-02-03T14:58:35.090Z,65.30
2019-02-03T15:01:04.463Z,67.00
2019-02-03T15:03:34.058Z,67.90
2019-02-03T15:06:03.663Z,68.40
2019-02-03T15:08:32.866Z,68.50
2019-02-03T15:11:02.824Z,68.20
2019-02-03T15:13:32.515Z,69.40
2019-02-03T15:16:01.842Z,71.90
2019-02-03T15:18:31.663Z,73.60
2019-02-03T15:21:01.600Z,75.30
2019-02-03T15:23:30.829Z,77.90
2019-02-03T15:26:00.047Z,79.00
2019-02-03T15:28:29.439Z,80.90
2019-02-03T15:30:59.364Z,82.80
2019-02-03T15:33:29.001Z,85.00
2019-02-03T15:35:58.398Z,87.00
2019-02-03T15:38:28.729Z,89.40
2019-02-03T15:40:58.391Z,90.80
2019-02-03T15:43:27.999Z,91.30
2019-02-03T15:45:57.247Z,92.30
2019-02-03T15:48:27.036Z,93.80
2019-02-03T15:50:57.790Z,95.90
2019-02-03T15:53:27.368Z,98.00
2019-02-03T15:55:56.596Z,99.90
2019-02-03T15:58:25.866Z,99.90
2019-02-03T16:00:55.858Z,99.90
2019-02-03T16:03:25.621Z,99.90
2019-02-03T16:05:55.140Z,99.90
2019-02-03T16:08:24.494Z,99.90
2019-02-03T16:10:54.173Z,99.90
2019-02-03T16:13:23.728Z,99.90
2019-02-03T16:15:53.088Z,99.90
2019-02-03T16:18:22.648Z,99.90
2019-02-03T16:20:51.889Z,99.90
2019-02-03T16:23:21.284Z,99.90
2019-02-03T16:25:50.678Z,99.90
2019-02-03T16:28:20.357Z,99.90
2019-02-03T16:30:49.922Z,99.90
2019-02-03T16:33:19.435Z,99.90
2019-02-03T16:35:49.557Z,99.90
2019-02-03T16:38:23.163Z,99.90
2019-02-03T16:40:50.466Z,99.90
2019-02-03T16:43:19.945Z,99.90
2019-02-03T16:45:49.199Z,99.90
2019-02-03T16:48:18.722Z,99.90
2019-02-03T16:50:48.269Z,99.90
2019-02-03T16:53:17.630Z,99.90
2019-02-03T16:55:47.310Z,99.90
2019-02-03T16:58:16.930Z,99.90
2019-02-03T17:00:47.662Z,99.90
2019-02-03T17:03:16.932Z,99.90
2019-02-03T17:05:46.672Z,99.90
2019-02-03T17:08:16.295Z,99.90
2019-02-03T17:10:45.613Z,99.90
2019-02-03T17:13:14.909Z,99.90
2019-02-03T17:16:03.656Z,99.90
2019-02-03T17:18:32.875Z,99.90
2019-02-03T17:21:02.601Z,99.90
2019-02-03T17:23:32.280Z,99.90
2019-02-03T17:26:04.916Z,99.90
2019-02-03T17:28:34.946Z,99.90
2019-02-03T17:31:04.195Z,99.90
2019-02-03T17:33:33.406Z,99.90
2019-02-03T17:36:03.115Z,99.90
2019-02-03T17:38:33.116Z,99.90
2019-02-03T17:41:03.128Z,99.90
2019-02-03T17:43:32.521Z,99.90
2019-02-03T17:46:02.138Z,99.90
2019-02-03T17:48:31.511Z,99.90
2019-02-03T17:51:01.138Z,99.90
2019-02-03T17:53:30.819Z,99.90
2019-02-03T17:56:00.484Z,99.90
2019-02-03T17:58:30.545Z,99.90
2019-02-03T18:01:06.431Z,99.90
2019-02-03T18:03:35.672Z,99.90
2019-02-03T18:06:05.238Z,99.90
2019-02-03T18:08:34.837Z,99.90
2019-02-03T18:11:04.815Z,99.90
2019-02-03T18:13:35.277Z,99.90
2019-02-03T18:16:04.545Z,99.90
2019-02-03T18:18:34.553Z,99.90
2019-02-03T18:21:03.785Z,99.90
2019-02-03T18:23:33.326Z,99.90
2019-02-03T18:26:02.570Z,99.90
2019-02-03T18:28:32.179Z,99.90
2019-02-03T18:31:20.971Z,99.90
2019-02-03T18:33:51.016Z,99.90
2019-02-03T18:36:20.373Z,99.90
2019-02-03T18:38:49.958Z,99.90
2019-02-03T18:41:19.346Z,99.90
2019-02-03T18:43:49.091Z,99.90
2019-02-03T18:46:18.732Z,99.90
2019-02-03T18:48:48.298Z,99.90
2019-02-03T18:51:18.425Z,99.90
2019-02-03T18:53:47.985Z,99.90
2019-02-03T18:56:17.572Z,99.90
2019-02-03T18:58:46.849Z,99.90
2019-02-03T19:01:16.522Z,99.90
2019-02-03T19:03:45.800Z,99.90
2019-02-03T19:06:15.172Z,99.90
2019-02-03T19:08:44.834Z,99.90
2019-02-03T19:11:14.374Z,99.90
2019-02-03T19:13:43.927Z,99.90
2019-02-03T19:16:13.190Z,99.90
2019-02-03T19:18:44.652Z,99.90
2019-02-03T19:21:13.875Z,99.90
2019-02-03T19:23:43.414Z,99.90
2019-02-03T19:26:12.625Z,99.90
2019-02-03T19:28:42.917Z,99.90
2019-02-03T19:31:12.219Z,99.90
2019-02-03T19:33:41.877Z,99.90
2019-02-03T19:36:11.200Z,99.90
2019-02-03T19:38:40.539Z,99.90
2019-02-03T19:41:29.763Z,99.90
2019-02-03T19:43:59.337Z,99.90
2019-02-03T19:46:28.627Z,99.90
2019-02-03T19:48:58.331Z,99.90
2019-02-03T19:51:28.295Z,99.90
2019-02-03T19:53:57.701Z,99.90
2019-02-03T19:56:27.537Z,99.90
2019-02-03T19:58:57.689Z,99.90
2019-02-03T20:01:27.736Z,99.90
2019-02-03T20:03:57.502Z,99.90
2019-02-03T20:06:26.930Z,99.90
2019-02-03T20:08:56.531Z,99.90
2019-02-03T20:11:26.389Z,99.90
2019-02-03T20:13:56.053Z,99.90
2019-02-03T20:16:26.067Z,99.90
2019-02-03T20:18:55.430Z,99.90
2019-02-03T20:21:25.022Z,99.90
2019-02-03T20:23:54.760Z,99.90
2019-02-03T20:26:24.417Z,99.90
2019-02-03T20:28:53.907Z,99.90
2019-02-03T20:31:23.163Z,99.90
2019-02-03T20:33:52.906Z,99.90
2019-02-03T20:36:22.145Z,99.90
2019-02-03T20:38:52.143Z,99.90
2019-02-03T20:41:21.986Z,99.90
2019-02-03T20:43:51.679Z,99.90
2019-02-03T20:46:22.177Z,99.90
2019-02-03T20:48:52.003Z,99.90
2019-02-03T20:51:21.657Z,99.90
2019-02-03T20:53:50.977Z,99.90
2019-02-03T20:56:39.784Z,99.90
2019-02-03T20:59:09.576Z,99.90
2019-02-03T21:01:39.608Z,99.90
2019-02-03T21:04:08.838Z,99.90
2019-02-03T21:06:38.986Z,99.90
2019-02-03T21:09:09.649Z,99.90
2019-02-03T21:11:39.310Z,99.90
2019-02-03T21:14:09.051Z,99.90
2019-02-03T21:16:38.443Z,99.90
2019-02-03T21:19:07.631Z,99.90
2019-02-03T21:21:38.049Z,99.90
2019-02-03T21:24:07.699Z,99.90
2019-02-03T21:26:37.129Z,99.90
2019-02-03T21:29:07.281Z,99.90
2019-02-03T21:31:36.541Z,99.90
2019-02-03T21:34:06.854Z,99.90
2019-02-03T21:36:36.156Z,99.90
2019-02-03T21:39:08.205Z,99.90
2019-02-03T21:41:38.020Z,99.90
2019-02-03T21:44:07.335Z,99.90
2019-02-03T21:46:36.987Z,99.90
2019-02-03T21:49:06.705Z,99.90
2019-02-03T21:51:36.810Z,99.90
2019-02-03T21:54:06.162Z,99.90
2019-02-03T21:56:35.470Z,99.90
2019-02-03T21:59:04.766Z,99.90
2019-02-03T22:01:34.643Z,99.90
2019-02-03T22:04:03.900Z,99.90
2019-02-03T22:06:33.167Z,99.90
2019-02-03T22:09:07.865Z,99.90
2019-02-03T22:11:37.924Z,99.90
2019-02-03T22:14:07.522Z,99.90
2019-02-03T22:16:36.775Z,99.90
2019-02-03T22:19:06.369Z,99.90
2019-02-03T22:21:35.710Z,99.90
2019-02-03T22:24:05.779Z,99.90
2019-02-03T22:26:35.152Z,99.90
2019-02-03T22:29:23.885Z,99.90
2019-02-03T22:31:53.895Z,99.90
2019-02-03T22:34:23.443Z,99.90
2019-02-03T22:36:53.495Z,99.90
2019-02-03T22:39:22.905Z,99.90
2019-02-03T22:41:52.166Z,99.90
2019-02-03T22:44:33.660Z,99.90
2019-02-03T22:47:03.042Z,99.90
2019-02-03T22:49:33.000Z,99.90
2019-02-03T22:52:02.655Z,99.90
2019-02-03T22:54:31.851Z,99.90
2019-02-03T22:57:01.377Z,99.90
2019-02-03T22:59:30.624Z,99.90
2019-02-03T23:02:00.283Z,99.90
2019-02-03T23:04:32.701Z,99.90
2019-02-03T23:07:01.887Z,99.90
2019-02-03T23:09:34.424Z,99.90
2019-02-03T23:12:06.014Z,99.90
2019-02-03T23:14:35.267Z,99.90
2019-02-03T23:17:05.260Z,99.90
2019-02-03T23:19:34.635Z,99.90
2019-02-03T23:22:03.863Z,99.90
2019-02-03T23:24:33.452Z,99.90
2019-02-03T23:27:02.700Z,99.90
2019-02-03T23:29:32.386Z,99.90
2019-02-03T23:32:01.637Z,99.90
2019-02-03T23:34:31.013Z,99.90
2019-02-03T23:37:00.987Z,99.90
2019-02-03T23:39:30.469Z,99.90
2019-02-03T23:42:00.172Z,99.90
2019-02-03T23:44:29.767Z,99.90
2019-02-03T23:47:02.448Z,99.90
2019-02-03T23:49:32.096Z,99.90
2019-02-03T23:52:01.340Z,99.90
2019-02-03T23:54:30.958Z,99.90
2019-02-03T23:57:01.798Z,99.90
2019-02-03T23:59:31.073Z,99.90
